Time;durP1;ratioP1;P1;durP2;ratioP2;P2;SDS_P1;SDS_P2;PMS_P1;PMS_P2;Temp;Humidity;BMP_temperature;BMP_pressure;BME280_temperature;BME280_humidity;BME280_pressure;Samples;Min_cycle;Max_cycle;Signal;HPM_P1;HPM_P2
2021/10/13 00:01:20;;;;;;;;;10.75;9.50;;;;;19.06;100.00;101956.84;5037052;28;45651;-84
2021/10/13 00:03:46;;;;;;;;;11.00;8.75;;;;;19.09;100.00;101961.94;5036947;28;46007;-84
2021/10/13 00:06:11;;;;;;;;;10.75;9.75;;;;;19.01;100.00;101970.63;5024093;28;45323;-84
2021/10/13 00:08:37;;;;;;;;;8.50;7.00;;;;;19.02;100.00;101972.31;5035180;28;45425;-84
2021/10/13 00:11:02;;;;;;;;;11.25;9.00;;;;;19.00;100.00;101970.75;5036914;28;45642;-84
2021/10/13 00:13:28;;;;;;;;;15.75;10.00;;;;;19.02;100.00;101968.78;5029382;28;47407;-85
2021/10/13 00:15:53;;;;;;;;;9.75;9.00;;;;;19.01;100.00;101975.13;5023881;28;45319;-85
2021/10/13 00:18:18;;;;;;;;;11.00;9.75;;;;;19.05;100.00;101968.53;5037831;28;45345;-85
2021/10/13 00:20:44;;;;;;;;;9.50;9.00;;;;;19.03;100.00;101965.13;5016193;28;45949;-85
2021/10/13 00:23:10;;;;;;;;;12.75;8.00;;;;;19.06;100.00;101959.50;5020193;28;45175;-82
2021/10/13 00:25:36;;;;;;;;;7.50;7.50;;;;;19.20;100.00;101966.41;5025521;28;45477;-82
2021/10/13 00:28:01;;;;;;;;;11.50;8.75;;;;;19.12;100.00;101969.69;5017363;28;45176;-83
2021/10/13 00:30:27;;;;;;;;;10.25;8.75;;;;;19.23;100.00;101968.78;5034138;28;45443;-82
2021/10/13 00:32:53;;;;;;;;;11.75;8.75;;;;;19.25;100.00;101986.44;5036532;28;45367;-83
2021/10/13 00:35:18;;;;;;;;;11.00;8.50;;;;;19.27;100.00;101980.97;5034198;28;45482;-82
2021/10/13 00:37:44;;;;;;;;;7.75;7.75;;;;;19.26;100.00;101976.59;5038150;28;45928;-83
2021/10/13 00:40:10;;;;;;;;;10.25;8.50;;;;;19.25;100.00;101982.91;5040861;28;45481;-85
2021/10/13 00:42:35;;;;;;;;;11.50;8.50;;;;;19.18;100.00;101993.31;5036517;28;46193;-83
2021/10/13 00:45:00;;;;;;;;;14.75;8.50;;;;;19.13;100.00;101986.63;5035148;28;45366;-83
2021/10/13 00:47:26;;;;;;;;;12.25;9.75;;;;;19.04;100.00;101985.56;5036465;28;45239;-84
2021/10/13 00:49:51;;;;;;;;;12.00;9.50;;;;;18.99;100.00;101994.00;5021067;28;45598;-83
2021/10/13 00:52:18;;;;;;;;;12.25;11.00;;;;;18.94;100.00;101998.00;5018564;28;45711;-84
2021/10/13 00:54:44;;;;;;;;;15.75;9.00;;;;;18.96;100.00;102001.41;5031266;27;45262;-84
2021/10/13 00:57:10;;;;;;;;;12.50;10.25;;;;;18.81;100.00;101998.19;5037200;28;45317;-84
2021/10/13 00:59:36;;;;;;;;;13.00;10.75;;;;;18.82;100.00;101999.03;5039782;28;45439;-83
2021/10/13 01:02:04;;;;;;;;;10.75;9.00;;;;;18.78;100.00;101998.44;5040794;28;47965;-83
2021/10/13 01:04:29;;;;;;;;;14.25;10.25;;;;;18.73;100.00;102007.81;5031078;28;47169;-83
2021/10/13 01:07:13;;;;;;;;;9.25;9.25;;;;;18.74;100.00;102005.03;5031596;28;45763;-83
2021/10/13 01:09:51;;;;;;;;;12.50;10.50;;;;;18.78;100.00;102010.97;5026732;28;45607;-84
2021/10/13 01:12:40;;;;;;;;;13.50;9.75;;;;;18.67;100.00;102010.00;5025147;28;45433;-83
2021/10/13 01:15:28;;;;;;;;;12.00;12.00;;;;;18.66;100.00;102010.97;5037866;28;45568;-83
2021/10/13 01:18:29;;;;;;;;;12.00;10.00;;;;;18.60;100.00;102013.31;5070953;27;45574;-83
2021/10/13 01:21:30;;;;;;;;;12.75;9.75;;;;;18.55;100.00;102010.13;5023655;28;45172;-84
2021/10/13 01:24:11;;;;;;;;;16.50;9.25;;;;;18.50;100.00;102012.31;5058543;27;47275;-83
2021/10/13 01:27:02;;;;;;;;;11.50;10.25;;;;;18.36;100.00;102010.78;5033740;28;45385;-83
2021/10/13 01:29:32;;;;;;;;;15.50;11.50;;;;;18.20;100.00;102011.16;5041372;27;45453;-83
2021/10/13 01:32:20;;;;;;;;;11.50;9.75;;;;;18.22;100.00;102011.84;5033293;28;45817;-84
2021/10/13 01:34:48;;;;;;;;;15.75;9.25;;;;;18.20;100.00;102013.81;5021669;28;45507;-83
2021/10/13 01:37:26;;;;;;;;;7.00;4.75;;;;;18.11;100.00;102014.56;5023945;28;45401;-83
2021/10/13 01:39:55;;;;;;;;;10.75;8.75;;;;;18.09;100.00;102010.28;5048794;28;45249;-84
2021/10/13 01:42:22;;;;;;;;;9.00;8.50;;;;;18.00;100.00;102017.22;5032474;28;45426;-83
2021/10/13 01:44:50;;;;;;;;;7.50;6.25;;;;;18.05;100.00;102015.03;5042937;28;44980;-83
2021/10/13 01:47:18;;;;;;;;;10.25;8.00;;;;;18.09;100.00;102020.97;5056328;27;45483;-84
2021/10/13 01:49:46;;;;;;;;;10.25;8.75;;;;;18.08;100.00;102014.78;5063394;27;44844;-83
2021/10/13 01:52:13;;;;;;;;;7.75;7.75;;;;;18.06;100.00;102007.84;5055615;27;45440;-84
2021/10/13 01:54:41;;;;;;;;;8.75;6.00;;;;;18.08;100.00;102013.94;5046383;28;45319;-83
2021/10/13 01:57:08;;;;;;;;;8.00;8.00;;;;;18.00;100.00;102008.34;5032047;28;45185;-84
2021/10/13 01:59:36;;;;;;;;;7.00;5.25;;;;;18.00;100.00;102005.66;5039932;28;45448;-84
2021/10/13 02:02:01;;;;;;;;;8.00;6.00;;;;;17.90;100.00;102022.44;5037106;28;45665;-84
2021/10/13 02:04:28;;;;;;;;;8.00;5.75;;;;;17.93;100.00;102021.34;5037659;28;48276;-84
2021/10/13 02:06:54;;;;;;;;;6.75;6.75;;;;;17.93;100.00;102019.53;5036803;28;45239;-84
2021/10/13 02:09:22;;;;;;;;;11.75;7.25;;;;;17.89;100.00;102023.41;5028050;28;45396;-84
2021/10/13 02:11:48;;;;;;;;;7.50;7.25;;;;;17.87;100.00;102029.81;5036648;28;45354;-84
2021/10/13 02:14:17;;;;;;;;;7.00;5.75;;;;;17.86;100.00;102036.97;5029865;28;45522;-84
2021/10/13 02:16:47;;;;;;;;;6.00;6.00;;;;;17.82;100.00;102032.00;5038761;28;45428;-84
2021/10/13 02:19:15;;;;;;;;;9.00;6.25;;;;;17.84;100.00;102032.75;5053941;28;45421;-84
2021/10/13 02:21:46;;;;;;;;;7.50;5.00;;;;;17.79;100.00;102027.75;5025582;28;45582;-84
2021/10/13 02:24:15;;;;;;;;;7.25;6.00;;;;;17.73;100.00;102033.56;5036682;28;46379;-84
2021/10/13 02:26:43;;;;;;;;;9.50;5.00;;;;;17.79;100.00;102037.59;5028345;28;45573;-84
2021/10/13 02:29:14;;;;;;;;;5.75;5.75;;;;;17.67;100.00;102022.50;5038705;28;45320;-84
2021/10/13 02:31:40;;;;;;;;;5.75;4.00;;;;;17.66;100.00;102037.69;5028942;28;45474;-84
2021/10/13 02:34:06;;;;;;;;;4.25;4.25;;;;;17.64;100.00;102044.13;5035505;28;46245;-84
2021/10/13 02:36:31;;;;;;;;;7.00;6.00;;;;;17.60;100.00;102043.47;5036885;27;45905;-84
2021/10/13 02:38:57;;;;;;;;;7.50;6.00;;;;;17.59;100.00;102044.41;5039938;28;45425;-83
2021/10/13 02:41:23;;;;;;;;;4.00;4.00;;;;;17.61;100.00;102042.50;5053951;28;45620;-83
2021/10/13 02:43:49;;;;;;;;;7.00;5.00;;;;;17.64;100.00;102049.47;5034316;28;45167;-84
2021/10/13 02:46:20;;;;;;;;;6.00;5.50;;;;;17.66;100.00;102050.19;5034451;28;45939;-84
2021/10/13 02:48:53;;;;;;;;;7.50;6.25;;;;;17.61;100.00;102037.16;5029441;28;45394;-84
2021/10/13 02:51:33;;;;;;;;;5.75;5.00;;;;;17.58;100.00;102046.25;5034467;28;45509;-84
2021/10/13 02:54:13;;;;;;;;;7.00;5.00;;;;;17.50;100.00;102056.66;5037951;28;45597;-84
2021/10/13 02:56:46;;;;;;;;;5.00;5.00;;;;;17.49;100.00;102059.44;5046126;28;45539;-84
2021/10/13 02:59:26;;;;;;;;;8.00;5.25;;;;;17.49;100.00;102051.44;5036584;28;45364;-84
2021/10/13 03:01:56;;;;;;;;;5.75;4.25;;;;;17.40;100.00;102060.97;5027815;28;45381;-84
2021/10/13 03:04:26;;;;;;;;;3.75;3.75;;;;;17.41;100.00;102064.50;5037723;28;46399;-83
2021/10/13 03:07:04;;;;;;;;;7.00;5.00;;;;;17.35;100.00;102062.31;5053256;28;45617;-84
2021/10/13 03:09:34;;;;;;;;;4.00;4.00;;;;;17.41;100.00;102069.84;5032904;28;45180;-83
2021/10/13 03:12:02;;;;;;;;;4.00;3.50;;;;;17.37;100.00;102068.41;5016949;28;45433;-83
2021/10/13 03:14:29;;;;;;;;;5.00;3.50;;;;;17.34;100.00;102074.81;5037924;27;47536;-84
2021/10/13 03:16:56;;;;;;;;;5.75;4.00;;;;;17.36;100.00;102064.88;5043512;28;45293;-84
2021/10/13 03:19:25;;;;;;;;;4.25;3.50;;;;;17.34;100.00;102056.13;5024211;28;45205;-84
2021/10/13 03:21:52;;;;;;;;;4.75;2.25;;;;;17.32;100.00;102059.84;5027245;28;45365;-84
2021/10/13 03:24:19;;;;;;;;;3.50;3.50;;;;;17.29;100.00;102060.09;5036969;28;46178;-84
2021/10/13 03:26:49;;;;;;;;;5.00;4.00;;;;;17.24;100.00;102052.44;5027137;28;45357;-84
2021/10/13 03:29:15;;;;;;;;;7.75;3.50;;;;;17.23;100.00;102068.56;5021381;28;45392;-84
2021/10/13 03:31:41;;;;;;;;;5.75;4.00;;;;;17.12;100.00;102067.53;5032842;28;45438;-83
2021/10/13 03:34:07;;;;;;;;;4.00;2.50;;;;;17.14;100.00;102070.94;5034966;28;46316;-84
2021/10/13 03:36:43;;;;;;;;;4.50;4.50;;;;;17.13;100.00;102073.72;5032056;28;45411;-84
2021/10/13 03:39:09;;;;;;;;;4.00;4.00;;;;;17.13;100.00;102073.72;5023941;28;45362;-84
2021/10/13 03:41:35;;;;;;;;;4.50;4.00;;;;;17.19;100.00;102078.63;5032722;28;45188;-84
2021/10/13 03:44:01;;;;;;;;;5.75;4.00;;;;;17.15;100.00;102067.31;5036486;28;45417;-83
2021/10/13 03:46:26;;;;;;;;;5.25;3.00;;;;;17.22;100.00;102081.06;5037328;28;45226;-84
2021/10/13 03:48:53;;;;;;;;;6.75;5.50;;;;;17.18;100.00;102074.25;5021157;28;45508;-83
2021/10/13 03:51:19;;;;;;;;;5.00;5.00;;;;;17.10;100.00;102073.97;5027980;28;45168;-84
2021/10/13 03:53:44;;;;;;;;;5.00;4.00;;;;;17.03;100.00;102064.69;5037200;28;46195;-84
2021/10/13 03:56:13;;;;;;;;;5.50;4.00;;;;;17.11;100.00;102068.53;5047517;28;45526;-83
2021/10/13 03:58:38;;;;;;;;;5.75;4.00;;;;;17.12;100.00;102072.00;5033983;28;45432;-83
2021/10/13 04:01:04;;;;;;;;;5.75;4.00;;;;;17.10;100.00;102073.97;5031446;28;45328;-83
2021/10/13 04:03:29;;;;;;;;;5.75;4.00;;;;;17.10;100.00;102079.31;5036005;28;47093;-84
2021/10/13 04:05:55;;;;;;;;;6.25;4.75;;;;;17.06;100.00;102088.50;5031577;28;45306;-84
2021/10/13 04:08:20;;;;;;;;;4.50;2.00;;;;;17.07;100.00;102083.03;5027790;28;45712;-84
2021/10/13 04:10:46;;;;;;;;;4.50;2.50;;;;;17.02;100.00;102087.03;5048681;28;45253;-84
2021/10/13 04:13:11;;;;;;;;;4.00;4.00;;;;;16.96;100.00;102084.78;5030434;28;45569;-84
2021/10/13 04:15:37;;;;;;;;;6.50;4.00;;;;;16.95;100.00;102099.09;5028112;28;45220;-84
2021/10/13 04:18:04;;;;;;;;;6.00;4.50;;;;;16.81;100.00;102100.09;5033167;28;45333;-84
2021/10/13 04:20:29;;;;;;;;;5.00;3.25;;;;;16.90;100.00;102106.59;5052685;28;45786;-83
2021/10/13 04:22:55;;;;;;;;;8.75;6.75;;;;;16.90;100.00;102109.25;5032881;28;47414;-84
2021/10/13 04:25:21;;;;;;;;;9.00;6.00;;;;;16.88;100.00;102108.50;5034669;28;45417;-84
2021/10/13 04:27:46;;;;;;;;;14.00;7.25;;;;;16.92;100.00;102110.88;5025707;28;45410;-84
2021/10/13 04:30:11;;;;;;;;;9.50;4.25;;;;;16.89;100.00;102112.88;5036000;28;45417;-84
2021/10/13 04:32:37;;;;;;;;;6.75;3.00;;;;;16.87;100.00;102121.00;5023481;28;45478;-84
2021/10/13 04:35:02;;;;;;;;;4.50;4.50;;;;;16.86;100.00;102113.94;5037736;28;45475;-84
2021/10/13 04:37:28;;;;;;;;;11.50;5.00;;;;;16.82;100.00;102101.81;5034024;28;45685;-84
2021/10/13 04:39:53;;;;;;;;;7.00;4.00;;;;;16.76;100.00;102113.75;5033633;28;45403;-84
2021/10/13 04:42:19;;;;;;;;;2.00;1.00;;;;;16.71;100.00;102125.72;5022746;28;45770;-84
2021/10/13 04:44:44;;;;;;;;;3.50;3.25;;;;;16.62;100.00;102116.56;5031278;28;45528;-83
2021/10/13 04:47:09;;;;;;;;;2.75;2.75;;;;;16.64;100.00;102127.13;5039045;28;45388;-83
2021/10/13 04:49:35;;;;;;;;;5.50;4.00;;;;;16.67;100.00;102124.22;5030843;28;45515;-84
2021/10/13 04:52:00;;;;;;;;;3.75;3.00;;;;;16.73;100.00;102134.50;5039146;28;48252;-84
2021/10/13 04:54:26;;;;;;;;;3.75;3.50;;;;;16.66;100.00;102133.22;5032308;28;45258;-84
2021/10/13 04:56:51;;;;;;;;;7.75;4.00;;;;;16.65;100.00;102135.03;5034557;28;45360;-84
2021/10/13 04:59:17;;;;;;;;;7.00;5.00;;;;;16.77;100.00;102139.47;5046181;28;45621;-83
2021/10/13 05:01:42;;;;;;;;;5.50;4.00;;;;;16.73;100.00;102137.16;5030346;28;45399;-84
2021/10/13 05:04:07;;;;;;;;;4.75;2.75;;;;;16.71;100.00;102137.25;5019153;28;45400;-83
2021/10/13 05:06:33;;;;;;;;;5.25;3.50;;;;;16.64;100.00;102140.47;5040935;28;45197;-84
2021/10/13 05:08:58;;;;;;;;;3.25;3.25;;;;;16.63;100.00;102131.63;5029068;28;45371;-84
2021/10/13 05:11:23;;;;;;;;;4.00;3.75;;;;;16.64;100.00;102129.81;5026199;28;45235;-84
2021/10/13 05:13:49;;;;;;;;;9.75;5.50;;;;;16.70;100.00;102140.88;5027733;28;45747;-84
2021/10/13 05:16:14;;;;;;;;;13.50;4.25;;;;;16.63;100.00;102142.28;5030844;28;45384;-84
2021/10/13 05:18:40;;;;;;;;;5.00;4.00;;;;;16.45;100.00;102157.75;5028440;28;45518;-84
2021/10/13 05:21:05;;;;;;;;;3.25;3.25;;;;;16.52;100.00;102160.81;5031843;28;46878;-83
2021/10/13 05:23:31;;;;;;;;;3.75;3.75;;;;;16.59;100.00;102153.22;5039937;28;45418;-84
2021/10/13 05:25:56;;;;;;;;;4.00;3.75;;;;;16.60;100.00;102155.78;5025514;28;45420;-84
2021/10/13 05:28:21;;;;;;;;;9.50;5.00;;;;;16.52;100.00;102154.63;5023454;28;45542;-85
2021/10/13 05:30:47;;;;;;;;;6.00;5.50;;;;;16.50;100.00;102169.88;5027514;28;45357;-84
2021/10/13 05:33:12;;;;;;;;;15.75;6.00;;;;;16.50;100.00;102165.41;5024736;28;45415;-84
2021/10/13 05:35:38;;;;;;;;;6.00;5.50;;;;;16.54;100.00;102172.25;5023349;28;45374;-86
2021/10/13 05:38:03;;;;;;;;;7.50;5.25;;;;;16.48;100.00;102165.50;5031416;28;45462;-84
2021/10/13 05:40:28;;;;;;;;;9.25;4.00;;;;;16.49;100.00;102169.03;5028947;28;46165;-84
2021/10/13 05:42:54;;;;;;;;;6.75;4.00;;;;;16.45;100.00;102172.88;5020227;28;45487;-84
2021/10/13 05:45:19;;;;;;;;;9.00;3.50;;;;;16.46;100.00;102174.59;5035834;28;45271;-84
2021/10/13 05:47:45;;;;;;;;;4.75;4.75;;;;;16.41;100.00;102172.22;5035538;28;45243;-83
2021/10/13 05:50:10;;;;;;;;;7.00;5.00;;;;;16.43;100.00;102175.66;5041664;28;47280;-84
2021/10/13 05:52:36;;;;;;;;;8.75;5.00;;;;;16.37;100.00;102175.22;5042756;28;45217;-84
2021/10/13 05:55:01;;;;;;;;;7.75;5.25;;;;;16.35;100.00;102177.13;5037868;28;45511;-87
2021/10/13 05:57:26;;;;;;;;;10.00;5.00;;;;;16.29;100.00;102177.56;5054182;28;45513;-86
2021/10/13 05:59:57;;;;;;;;;5.00;4.75;;;;;16.24;100.00;102172.53;5044103;27;47235;-88
2021/10/13 06:03:36;;;;;;;;;7.00;5.25;;;;;16.04;100.00;102175.69;5129169;27;44733;-85
2021/10/13 06:06:01;;;;;;;;;5.00;5.00;;;;;16.07;100.00;102188.81;5124643;27;44777;-85
2021/10/13 06:08:27;;;;;;;;;6.75;4.75;;;;;16.22;100.00;102197.59;5102718;27;45544;-85
2021/10/13 06:10:52;;;;;;;;;7.50;5.50;;;;;16.25;100.00;102187.56;5084256;27;45401;-85
2021/10/13 06:13:17;;;;;;;;;10.00;4.50;;;;;16.18;100.00;102191.63;5094209;27;47022;-85
2021/10/13 06:15:43;;;;;;;;;6.00;5.00;;;;;16.17;100.00;102184.59;5096804;27;45310;-86
2021/10/13 06:18:10;;;;;;;;;6.00;6.00;;;;;16.16;100.00;102190.00;5087824;27;45177;-83
2021/10/13 06:20:36;;;;;;;;;10.75;5.00;;;;;16.21;100.00;102188.72;5081893;27;46045;-87
2021/10/13 06:23:02;;;;;;;;;13.50;9.00;;;;;16.29;100.00;102201.56;5084144;27;47492;-84
2021/10/13 06:25:28;;;;;;;;;9.00;6.75;;;;;16.14;100.00;102198.09;5082052;27;45334;-83
2021/10/13 06:27:54;;;;;;;;;9.50;6.25;;;;;16.16;100.00;102204.19;5091471;27;45378;-82
2021/10/13 06:30:19;;;;;;;;;7.00;4.00;;;;;16.21;100.00;102214.53;5092785;27;45523;-82
2021/10/13 06:32:44;;;;;;;;;7.75;5.25;;;;;16.21;100.00;102215.38;5097506;27;45482;-82
2021/10/13 06:35:10;;;;;;;;;9.25;5.00;;;;;16.14;100.00;102216.75;5084062;27;45315;-82
2021/10/13 06:37:36;;;;;;;;;6.25;5.00;;;;;16.22;100.00;102214.44;5081916;27;45421;-82
2021/10/13 06:40:02;;;;;;;;;9.25;6.00;;;;;16.33;100.00;102222.56;5092709;27;45415;-82
2021/10/13 06:42:27;;;;;;;;;12.00;6.00;;;;;16.36;100.00;102222.38;5098036;27;46300;-81
2021/10/13 06:44:52;;;;;;;;;7.00;5.25;;;;;16.33;100.00;102216.38;5081152;27;45288;-82
2021/10/13 06:47:18;;;;;;;;;11.00;6.00;;;;;16.32;100.00;102218.19;5093872;27;45437;-80
2021/10/13 06:49:43;;;;;;;;;5.25;5.25;;;;;16.32;100.00;102215.50;5100419;27;45508;-81
2021/10/13 06:52:08;;;;;;;;;12.50;5.00;;;;;16.37;100.00;102218.75;5092700;27;46270;-81
2021/10/13 06:54:34;;;;;;;;;11.75;5.00;;;;;16.45;100.00;102224.41;5090021;27;45891;-83
2021/10/13 06:56:59;;;;;;;;;7.75;5.00;;;;;16.50;100.00;102223.22;5088471;27;45500;-82
2021/10/13 06:59:25;;;;;;;;;12.75;7.75;;;;;16.49;100.00;102214.34;5078939;27;45504;-82
2021/10/13 07:01:50;;;;;;;;;7.25;7.25;;;;;16.52;100.00;102222.16;5077757;27;46658;-81
2021/10/13 07:04:16;;;;;;;;;10.00;6.50;;;;;16.61;100.00;102228.66;5093109;27;45515;-82
2021/10/13 07:06:41;;;;;;;;;14.25;6.25;;;;;16.69;100.00;102223.69;5092710;27;45385;-81
2021/10/13 07:09:07;;;;;;;;;10.25;5.75;;;;;16.72;100.00;102234.16;5091453;27;45597;-82
2021/10/13 07:11:33;;;;;;;;;12.50;7.25;;;;;16.77;100.00;102235.53;5097233;27;46105;-82
2021/10/13 07:13:59;;;;;;;;;11.00;7.00;;;;;16.93;100.00;102245.13;5079824;27;45331;-82
2021/10/13 07:16:24;;;;;;;;;7.00;5.25;;;;;16.94;100.00;102237.00;5071229;28;45414;-82
2021/10/13 07:18:49;;;;;;;;;13.25;6.75;;;;;17.02;100.00;102242.69;5067674;28;45459;-82
2021/10/13 07:21:15;;;;;;;;;9.50;5.75;;;;;17.03;100.00;102239.00;5069991;28;46584;-82
2021/10/13 07:23:40;;;;;;;;;13.00;6.50;;;;;17.11;100.00;102254.50;5078553;27;45471;-82
2021/10/13 07:26:07;;;;;;;;;8.75;7.75;;;;;17.24;100.00;102254.47;5077732;27;45801;-83
2021/10/13 07:28:35;;;;;;;;;8.25;6.00;;;;;17.37;100.00;102247.31;5077248;28;45468;-83
2021/10/13 07:31:00;;;;;;;;;7.25;6.25;;;;;17.53;100.00;102251.41;5072126;27;45434;-82
2021/10/13 07:33:26;;;;;;;;;8.25;5.25;;;;;17.84;100.00;102260.75;5069327;28;45290;-83
2021/10/13 07:35:51;;;;;;;;;8.50;6.00;;;;;18.41;100.00;102260.00;5080901;28;45306;-82
2021/10/13 07:38:17;;;;;;;;;10.00;6.75;;;;;18.93;100.00;102259.53;5082131;27;45656;-81
2021/10/13 07:40:43;;;;;;;;;9.50;8.25;;;;;19.78;100.00;102259.81;5082207;27;46099;-82
2021/10/13 07:43:08;;;;;;;;;9.50;8.00;;;;;20.77;100.00;102246.91;5080455;28;45467;-81
2021/10/13 07:45:34;;;;;;;;;7.00;7.00;;;;;21.34;100.00;102248.16;5075314;27;45409;-82
2021/10/13 07:47:59;;;;;;;;;9.00;8.50;;;;;21.82;100.00;102240.22;5062018;28;45547;-82
2021/10/13 07:50:25;;;;;;;;;6.25;6.25;;;;;22.27;100.00;102255.81;5060714;28;47840;-82
2021/10/13 07:52:51;;;;;;;;;6.25;6.25;;;;;22.63;100.00;102256.91;5070053;28;45816;-82
2021/10/13 07:55:16;;;;;;;;;9.00;7.50;;;;;22.82;100.00;102246.09;5066286;28;45543;-82
2021/10/13 07:57:42;;;;;;;;;8.75;7.50;;;;;23.04;100.00;102256.50;5063854;27;45276;-82
2021/10/13 08:00:08;;;;;;;;;8.00;8.00;;;;;23.46;100.00;102253.34;5070183;28;47176;-83
2021/10/13 08:02:34;;;;;;;;;13.75;8.75;;;;;23.85;100.00;102246.69;5081139;27;45411;-83
2021/10/13 08:05:00;;;;;;;;;7.25;6.00;;;;;24.48;97.80;102245.75;5074207;28;45310;-82
2021/10/13 08:07:25;;;;;;;;;10.00;8.00;;;;;24.77;94.22;102251.69;5078051;28;45228;-83
2021/10/13 08:09:51;;;;;;;;;12.75;8.50;;;;;24.98;90.21;102257.59;5061867;28;45331;-83
2021/10/13 08:12:16;;;;;;;;;8.00;8.00;;;;;25.31;88.42;102255.03;5068186;28;45441;-83
2021/10/13 08:14:42;;;;;;;;;8.75;6.75;;;;;25.57;85.58;102257.66;5073661;27;45254;-82
2021/10/13 08:17:09;;;;;;;;;9.00;8.25;;;;;25.61;83.38;102256.34;5079192;27;45421;-83
2021/10/13 08:19:35;;;;;;;;;7.75;6.00;;;;;25.81;83.36;102254.19;5079682;27;46078;-83
2021/10/13 08:22:00;;;;;;;;;12.25;8.75;;;;;26.07;82.04;102261.16;5068387;28;45471;-84
2021/10/13 08:24:25;;;;;;;;;11.50;8.00;;;;;26.51;80.70;102244.56;5077104;27;45354;-83
2021/10/13 08:26:51;;;;;;;;;13.25;9.00;;;;;26.85;76.43;102248.94;5068087;28;45530;-83
2021/10/13 08:29:16;;;;;;;;;10.75;7.00;;;;;27.09;70.02;102255.16;5072418;28;48485;-83
2021/10/13 08:31:42;;;;;;;;;9.00;8.25;;;;;27.21;72.64;102250.19;5069637;27;45402;-84
2021/10/13 08:34:07;;;;;;;;;9.00;7.00;;;;;27.36;72.62;102251.13;5069611;28;45404;-83
2021/10/13 08:36:32;;;;;;;;;8.25;7.00;;;;;27.82;70.83;102253.94;5072657;28;45195;-83
2021/10/13 08:38:58;;;;;;;;;8.00;7.50;;;;;28.38;67.99;102249.97;5072904;28;45419;-84
2021/10/13 08:41:23;;;;;;;;;8.50;6.00;;;;;28.86;67.54;102262.22;5077749;28;45539;-84
2021/10/13 08:43:49;;;;;;;;;7.25;6.25;;;;;29.13;57.50;102263.47;5062302;28;45394;-84
2021/10/13 08:46:15;;;;;;;;;11.00;11.00;;;;;29.10;62.00;102258.41;5070189;28;45352;-84
2021/10/13 08:48:41;;;;;;;;;12.00;9.00;;;;;29.23;60.81;102260.44;5071999;28;47009;-85
2021/10/13 08:51:06;;;;;;;;;9.75;8.25;;;;;29.63;62.13;102265.38;5078295;28;45452;-84
2021/10/13 08:53:32;;;;;;;;;11.75;7.25;;;;;29.80;61.37;102260.53;5059901;28;45488;-83
2021/10/13 08:55:58;;;;;;;;;8.50;6.25;;;;;29.94;59.56;102258.81;5066201;28;46762;-86
2021/10/13 08:58:27;;;;;;;;;9.25;7.75;;;;;30.38;57.54;102261.31;5060868;28;45617;-85
2021/10/13 09:01:14;;;;;;;;;9.00;6.50;;;;;30.45;55.12;102273.97;5066664;28;45828;-84
2021/10/13 09:03:45;;;;;;;;;8.25;7.25;;;;;30.44;54.26;102265.97;5080087;27;45287;-85
2021/10/13 09:06:21;;;;;;;;;9.75;7.00;;;;;30.95;51.31;102273.94;5081436;27;45477;-85
2021/10/13 09:09:05;;;;;;;;;8.25;6.75;;;;;31.48;51.93;102269.59;5079637;28;47226;-85
2021/10/13 09:11:36;;;;;;;;;10.00;6.00;;;;;31.66;48.27;102267.16;5083404;27;45624;-83
2021/10/13 09:14:04;;;;;;;;;7.50;6.50;;;;;31.79;48.06;102272.66;5076055;28;45215;-83
2021/10/13 09:16:30;;;;;;;;;12.75;8.00;;;;;32.31;47.37;102274.66;5071138;28;45474;-84
2021/10/13 09:18:59;;;;;;;;;6.75;5.75;;;;;32.47;44.54;102270.66;5079842;27;46912;-84
2021/10/13 09:21:48;;;;;;;;;5.25;2.25;;;;;32.34;42.42;102270.66;5080998;28;45227;-84
2021/10/13 09:24:13;;;;;;;;;6.25;6.00;;;;;32.36;42.51;102270.44;5079164;28;45365;-84
2021/10/13 09:26:39;;;;;;;;;9.00;5.75;;;;;32.36;41.29;102270.44;5079745;28;45516;-84
2021/10/13 09:29:07;;;;;;;;;22.00;17.25;;;;;31.92;39.90;102275.44;5060048;28;45447;-83
2021/10/13 09:31:32;;;;;;;;;53.25;39.50;;;;;31.53;40.95;102276.13;5066882;28;45810;-84
2021/10/13 09:34:00;;;;;;;;;25.75;17.00;;;;;31.89;41.25;102274.97;5080909;27;45245;-83
2021/10/13 09:36:38;;;;;;;;;5.00;5.00;;;;;31.70;39.35;102281.25;5080359;27;45385;-83
2021/10/13 09:39:08;;;;;;;;;7.75;6.50;;;;;31.29;39.83;102276.66;5080271;27;46343;-84
2021/10/13 09:41:54;;;;;;;;;5.00;5.00;;;;;31.15;39.88;102280.34;5080418;28;45605;-84
2021/10/13 09:44:19;;;;;;;;;10.00;5.50;;;;;30.89;39.63;102278.28;5075832;27;45263;-84
2021/10/13 09:46:45;;;;;;;;;7.50;4.50;;;;;30.68;39.14;102281.94;5060235;28;45251;-84
2021/10/13 09:49:10;;;;;;;;;8.25;6.25;;;;;30.57;39.99;102277.03;5067071;28;46231;-84
2021/10/13 09:51:36;;;;;;;;;16.25;6.50;;;;;30.21;38.94;102282.56;5069414;28;45273;-83
2021/10/13 09:54:07;;;;;;;;;6.75;5.00;;;;;29.83;39.54;102289.28;5069552;27;45466;-84
2021/10/13 09:56:37;;;;;;;;;6.00;5.00;;;;;29.48;40.11;102297.25;5073276;28;45286;-84
2021/10/13 09:59:12;;;;;;;;;9.50;4.50;;;;;28.92;40.24;102294.16;5079023;28;47279;-85
2021/10/13 10:01:38;;;;;;;;;8.00;4.75;;;;;28.82;41.26;102292.72;5069114;28;45574;-85
2021/10/13 10:04:06;;;;;;;;;5.50;5.00;;;;;28.67;41.50;102292.69;5086155;27;45448;-83
2021/10/13 10:06:34;;;;;;;;;11.25;8.00;;;;;28.75;42.11;102289.03;5079839;27;45402;-84
2021/10/13 10:09:00;;;;;;;;;6.75;5.00;;;;;28.70;41.57;102296.88;5089665;28;47579;-83
2021/10/13 10:11:37;;;;;;;;;11.25;7.75;;;;;28.62;41.50;102287.78;5095345;27;45495;-85
2021/10/13 10:14:37;;;;;;;;;9.25;4.25;;;;;28.45;41.71;102294.41;5094516;28;44787;-84
2021/10/13 10:17:05;;;;;;;;;3.75;3.75;;;;;28.38;40.95;102303.47;5079404;27;45314;-84
2021/10/13 10:19:38;;;;;;;;;11.25;11.25;;;;;28.35;39.65;102298.41;5071646;28;47148;-84
2021/10/13 10:22:18;;;;;;;;;6.50;5.50;;;;;28.39;40.91;102295.16;5071277;28;45188;-83
2021/10/13 10:24:51;;;;;;;;;2.25;2.25;;;;;28.46;41.41;102300.69;5079296;27;45400;-83
2021/10/13 10:27:23;;;;;;;;;4.50;2.50;;;;;28.41;40.34;102290.34;5070543;27;45508;-84
2021/10/13 10:30:07;;;;;;;;;2.25;1.50;;;;;28.37;40.44;102293.63;5072040;28;47573;-83
2021/10/13 10:32:33;;;;;;;;;3.75;2.50;;;;;28.21;39.46;102294.63;5060279;28;45201;-83
2021/10/13 10:35:11;;;;;;;;;9.25;5.50;;;;;28.22;40.81;102297.16;5067673;28;45239;-88
2021/10/13 10:37:41;;;;;;;;;4.25;4.00;;;;;28.10;41.32;102284.97;5076614;28;45429;-86
2021/10/13 10:40:09;;;;;;;;;3.00;3.00;;;;;27.99;41.62;102293.53;5068612;28;46034;-84
2021/10/13 10:43:01;;;;;;;;;6.50;3.75;;;;;27.83;41.75;102296.38;5069393;28;45621;-84
2021/10/13 10:45:29;;;;;;;;;6.50;6.00;;;;;27.78;41.23;102296.03;5069593;28;45488;-82
2021/10/13 10:48:04;;;;;;;;;4.75;3.00;;;;;27.55;42.36;102282.44;5067101;28;45568;-85
2021/10/13 10:50:59;;;;;;;;;5.50;4.75;;;;;27.48;42.31;102286.88;5080120;28;46551;-84
2021/10/13 10:53:38;;;;;;;;;6.50;3.25;;;;;27.51;42.16;102284.63;5057521;28;45347;-83
2021/10/13 10:56:10;;;;;;;;;4.25;2.75;;;;;27.61;42.51;102283.59;5064430;28;45489;-84
2021/10/13 10:58:36;;;;;;;;;3.00;3.00;;;;;27.48;42.54;102290.44;5079382;28;45332;-82
2021/10/13 11:01:15;;;;;;;;;6.50;5.25;;;;;27.16;43.12;102291.38;5063273;27;45556;-83
2021/10/13 11:03:42;;;;;;;;;5.50;4.00;;;;;26.89;43.72;102285.50;5072930;28;45547;-84
2021/10/13 11:06:12;;;;;;;;;3.00;3.00;;;;;26.54;43.94;102287.59;5071964;28;45402;-87
2021/10/13 11:08:50;;;;;;;;;8.50;4.00;;;;;26.58;44.45;102288.13;5069280;28;46110;-86
2021/10/13 11:11:16;;;;;;;;;3.00;3.00;;;;;26.63;44.00;102292.00;5084787;27;46808;-87
2021/10/13 11:13:57;;;;;;;;;5.50;2.50;;;;;26.86;44.28;102291.28;5069397;28;45818;-85
2021/10/13 11:16:22;;;;;;;;;4.00;2.00;;;;;27.18;44.17;102293.94;5090207;27;45552;-84
2021/10/13 11:18:48;;;;;;;;;4.00;4.00;;;;;27.11;43.50;102295.66;5079404;27;45561;-86
2021/10/13 11:21:14;;;;;;;;;2.00;2.00;;;;;26.77;42.75;102302.13;5069460;28;45708;-82
2021/10/13 11:23:39;;;;;;;;;7.00;4.75;;;;;26.37;43.64;102299.47;5064409;28;45643;-81